Time;durP1;ratioP1;P1;durP2;ratioP2;P2;SDS_P1;SDS_P2;PMS_P1;PMS_P2;Temp;Humidity;BMP_temperature;BMP_pressure;BME280_temperature;BME280_humidity;BME280_pressure;Samples;Min_cycle;Max_cycle;Signal;HPM_P1;HPM_P2
2021/10/13 00:01:04;;;;;;;3.83;3.25;;;;;;;6.84;93.81;100146.16;2731073;86;21067;-66
2021/10/13 00:05:08;;;;;;;8.55;4.33;;;;;;;6.78;93.48;100145.27;2711632;88;21039;-67
2021/10/13 00:09:10;;;;;;;6.65;4.12;;;;;;;6.77;93.68;100148.86;2731025;86;21053;-66
2021/10/13 00:13:13;;;;;;;5.28;4.40;;;;;;;6.80;93.99;100145.55;2712823;87;21105;-67
2021/10/13 00:17:14;;;;;;;6.67;4.03;;;;;;;6.82;93.43;100152.89;2721260;87;21082;-67
2021/10/13 00:21:16;;;;;;;4.72;4.28;;;;;;;6.78;93.83;100147.45;2721211;87;21054;-67
2021/10/13 00:25:17;;;;;;;5.20;4.75;;;;;;;6.81;94.34;100151.66;2720881;87;20984;-67
2021/10/13 00:29:19;;;;;;;4.47;3.02;;;;;;;6.89;94.33;100153.78;2720974;87;21110;-67
2021/10/13 00:33:20;;;;;;;8.50;4.67;;;;;;;6.88;93.96;100149.45;2720982;87;21008;-67
2021/10/13 00:37:22;;;;;;;5.85;4.65;;;;;;;6.85;94.19;100148.70;2721066;87;21039;-67
2021/10/13 00:41:24;;;;;;;5.28;3.42;;;;;;;6.86;94.38;100145.11;2720604;87;21103;-67
2021/10/13 00:45:26;;;;;;;3.83;2.65;;;;;;;6.87;94.30;100152.55;2721098;87;21102;-67
2021/10/13 00:49:28;;;;;;;8.55;4.65;;;;;;;6.91;94.15;100155.37;2720957;87;21069;-67
2021/10/13 00:53:30;;;;;;;6.47;4.53;;;;;;;6.94;94.21;100163.09;2720922;87;21075;-67
2021/10/13 00:57:31;;;;;;;9.03;3.40;;;;;;;7.00;94.27;100161.84;2721074;87;21059;-67
2021/10/13 01:01:41;;;;;;;9.03;3.95;;;;;;;7.10;94.07;100162.05;2721058;87;21062;-68
2021/10/13 01:06:01;;;;;;;6.75;4.95;;;;;;;7.17;94.20;100175.20;2719723;87;21051;-67
2021/10/13 01:10:37;;;;;;;6.42;3.85;;;;;;;7.15;94.32;100169.18;2720495;87;21023;-67
2021/10/13 01:15:10;;;;;;;4.57;3.47;;;;;;;7.16;94.36;100172.19;2720362;87;21067;-68
2021/10/13 01:19:29;;;;;;;7.12;4.03;;;;;;;7.23;94.52;100170.80;2705192;88;21767;-68
2021/10/13 01:24:12;;;;;;;4.10;3.42;;;;;;;7.26;94.00;100170.58;2663080;88;21078;-68
2021/10/13 01:28:26;;;;;;;6.37;4.08;;;;;;;7.23;93.48;100169.48;2766110;86;21063;-68
2021/10/13 01:32:30;;;;;;;3.77;3.50;;;;;;;7.09;92.90;100175.73;2766522;86;20995;-69
2021/10/13 01:36:37;;;;;;;3.95;3.50;;;;;;;6.97;92.43;100173.46;2766725;86;21130;-68
2021/10/13 01:40:40;;;;;;;4.05;3.42;;;;;;;6.84;92.57;100177.88;2766045;86;20980;-68
2021/10/13 01:44:47;;;;;;;4.92;3.00;;;;;;;6.77;92.31;100189.84;2766578;86;21023;-68
2021/10/13 01:48:51;;;;;;;4.72;3.58;;;;;;;6.69;92.27;100181.10;2766290;86;21079;-67
2021/10/13 01:52:53;;;;;;;7.20;3.65;;;;;;;6.63;92.36;100177.06;2766369;86;21034;-67
2021/10/13 01:56:59;;;;;;;6.62;4.03;;;;;;;6.51;92.01;100184.52;2766422;86;21078;-68
2021/10/13 02:01:02;;;;;;;7.00;5.20;;;;;;;6.37;91.27;100184.94;2766613;86;21007;-68
2021/10/13 02:05:07;;;;;;;5.00;4.03;;;;;;;6.20;91.73;100190.48;2721565;87;21556;-68
2021/10/13 02:09:11;;;;;;;6.43;4.43;;;;;;;6.12;92.17;100190.52;2721845;87;21054;-68
2021/10/13 02:13:15;;;;;;;7.85;5.22;;;;;;;6.05;92.19;100201.58;2721668;87;21027;-68
2021/10/13 02:17:18;;;;;;;5.05;3.40;;;;;;;6.03;92.58;100201.66;2706031;87;21027;-68
2021/10/13 02:21:22;;;;;;;5.03;3.52;;;;;;;6.08;92.69;100207.98;2683786;88;21035;-68
2021/10/13 02:25:27;;;;;;;3.02;2.62;;;;;;;6.11;91.71;100215.70;2706189;88;21067;-68
2021/10/13 02:29:29;;;;;;;8.13;4.67;;;;;;;6.00;90.47;100212.39;2705540;88;21039;-68
2021/10/13 02:33:31;;;;;;;2.95;2.62;;;;;;;5.84;91.08;100214.68;2750259;86;21047;-68
2021/10/13 02:37:32;;;;;;;3.33;2.20;;;;;;;5.74;91.71;100212.27;2750415;86;21079;-69
2021/10/13 02:41:36;;;;;;;4.35;2.80;;;;;;;5.69;92.06;100216.50;2750479;86;21090;-68
2021/10/13 02:45:41;;;;;;;3.92;3.27;;;;;;;5.63;92.29;100223.95;2750694;86;21101;-68
2021/10/13 02:50:11;;;;;;;2.65;2.20;;;;;;;5.46;92.98;100228.47;2735523;86;21102;-68
2021/10/13 02:54:26;;;;;;;3.10;2.80;;;;;;;5.39;93.53;100233.77;2765963;86;21086;-68
2021/10/13 02:58:39;;;;;;;3.25;2.92;;;;;;;5.34;93.73;100239.80;2766445;86;21086;-68
2021/10/13 03:02:57;;;;;;;4.12;3.22;;;;;;;5.34;94.04;100242.44;2736469;86;21011;-67
2021/10/13 03:07:07;;;;;;;4.30;2.95;;;;;;;5.32;94.42;100245.64;2766476;86;21023;-68
2021/10/13 03:11:09;;;;;;;3.87;2.52;;;;;;;5.34;94.57;100243.75;2759322;86;21075;-69
2021/10/13 03:15:13;;;;;;;3.00;2.60;;;;;;;5.34;94.77;100245.07;2764688;86;21070;-68
2021/10/13 03:19:14;;;;;;;5.83;2.72;;;;;;;5.38;94.90;100248.73;2762315;86;21039;-73
2021/10/13 03:23:17;;;;;;;3.27;2.55;;;;;;;5.47;95.22;100258.36;2762485;86;21003;-74
2021/10/13 03:27:18;;;;;;;4.70;3.52;;;;;;;5.48;94.76;100262.20;2733974;86;21070;-74
2021/10/13 03:31:20;;;;;;;4.33;2.67;;;;;;;5.48;94.61;100264.84;2732598;86;20976;-73
2021/10/13 03:35:31;;;;;;;6.03;3.58;;;;;;;5.42;94.99;100275.78;2762498;86;20999;-73
2021/10/13 03:39:32;;;;;;;4.85;3.47;;;;;;;5.36;95.49;100285.39;2762272;86;21105;-74
2021/10/13 03:43:34;;;;;;;3.95;2.75;;;;;;;5.33;96.00;100286.90;2762211;86;21025;-75
2021/10/13 03:47:36;;;;;;;6.53;3.60;;;;;;;5.32;96.78;100292.62;2762436;86;21035;-75
2021/10/13 03:51:37;;;;;;;3.60;2.52;;;;;;;5.37;97.09;100300.28;2762203;86;21095;-75
2021/10/13 03:55:39;;;;;;;7.85;3.55;;;;;;;5.40;97.03;100301.41;2762314;86;21095;-76
2021/10/13 03:59:41;;;;;;;8.10;3.87;;;;;;;5.40;96.77;100302.72;2762325;86;21050;-76
2021/10/13 04:03:43;;;;;;;6.05;3.52;;;;;;;5.43;96.87;100298.58;2761406;86;21375;-77
2021/10/13 04:07:45;;;;;;;9.63;5.30;;;;;;;5.48;97.22;100303.09;2762444;86;21122;-77
2021/10/13 04:11:46;;;;;;;5.80;3.47;;;;;;;5.57;97.58;100304.33;2762439;86;21050;-75
2021/10/13 04:15:49;;;;;;;6.72;3.60;;;;;;;5.66;97.61;100311.70;2761771;86;21011;-75
2021/10/13 04:19:50;;;;;;;3.62;2.52;;;;;;;5.74;97.62;100319.62;2712221;86;21085;-75
2021/10/13 04:23:52;;;;;;;4.85;2.58;;;;;;;5.78;97.61;100321.98;2761871;86;21082;-75
2021/10/13 04:27:53;;;;;;;7.10;3.22;;;;;;;5.86;97.51;100318.39;2762261;86;21030;-75
2021/10/13 04:31:55;;;;;;;4.25;3.85;;;;;;;5.90;97.13;100328.30;2762193;86;21058;-73
2021/10/13 04:35:56;;;;;;;19.92;4.37;;;;;;;5.90;97.13;100337.54;2761683;86;21115;-73
2021/10/13 04:39:58;;;;;;;10.58;5.58;;;;;;;5.92;97.11;100338.78;2761854;86;21066;-73
2021/10/13 04:44:00;;;;;;;5.58;4.20;;;;;;;5.94;97.13;100333.76;2761578;86;21062;-75
2021/10/13 04:48:02;;;;;;;3.33;3.02;;;;;;;5.98;97.14;100335.75;2761277;86;21047;-74
2021/10/13 04:52:04;;;;;;;4.00;3.20;;;;;;;6.00;97.01;100336.50;2761930;86;21070;-74
2021/10/13 04:56:05;;;;;;;2.98;2.52;;;;;;;6.04;97.10;100338.52;2762291;86;21031;-74
2021/10/13 05:00:09;;;;;;;4.70;2.85;;;;;;;6.08;96.80;100342.66;2762339;86;21073;-74
2021/10/13 05:04:11;;;;;;;2.98;2.75;;;;;;;6.10;96.74;100341.63;2762417;86;21050;-74
2021/10/13 05:08:13;;;;;;;6.08;2.45;;;;;;;6.09;96.27;100345.22;2762272;86;21342;-74
2021/10/13 05:12:14;;;;;;;4.90;3.05;;;;;;;6.06;96.21;100355.95;2762342;86;21122;-74
2021/10/13 05:16:17;;;;;;;4.17;2.37;;;;;;;6.06;96.34;100355.11;2756196;86;21622;-74
2021/10/13 05:20:18;;;;;;;2.95;2.37;;;;;;;6.06;96.27;100359.91;2715004;86;21014;-74
2021/10/13 05:24:20;;;;;;;4.10;3.05;;;;;;;6.05;96.31;100363.50;2766445;86;21007;-74
2021/10/13 05:28:21;;;;;;;3.30;2.92;;;;;;;6.02;96.41;100374.73;2766907;86;20991;-74
2021/10/13 05:32:22;;;;;;;5.47;2.92;;;;;;;5.97;96.60;100383.73;2766960;86;21321;-74
2021/10/13 05:36:24;;;;;;;3.98;2.87;;;;;;;5.98;96.77;100382.79;2751001;85;21055;-74
2021/10/13 05:40:26;;;;;;;10.23;4.78;;;;;;;6.00;96.79;100394.59;2751154;86;21035;-74
2021/10/13 05:44:27;;;;;;;8.10;3.67;;;;;;;6.02;96.87;100395.38;2751141;86;21054;-74
2021/10/13 05:48:29;;;;;;;2.65;2.10;;;;;;;6.04;96.69;100405.38;2751228;86;21101;-73
2021/10/13 05:52:30;;;;;;;5.90;3.37;;;;;;;6.07;96.67;100406.50;2751061;86;21019;-74
2021/10/13 05:56:32;;;;;;;7.75;3.40;;;;;;;6.14;96.70;100410.48;2751266;86;21020;-73
2021/10/13 06:00:34;;;;;;;6.22;4.60;;;;;;;6.23;96.56;100418.77;2751115;86;21583;-73
2021/10/13 06:04:35;;;;;;;9.68;3.27;;;;;;;6.30;96.27;100418.80;2751054;86;21051;-73
2021/10/13 06:08:37;;;;;;;4.33;2.67;;;;;;;6.34;96.00;100424.25;2750905;86;21059;-73
2021/10/13 06:12:38;;;;;;;8.45;3.90;;;;;;;6.36;95.83;100419.72;2751007;86;21647;-73
2021/10/13 06:16:40;;;;;;;4.10;3.70;;;;;;;6.41;95.91;100429.52;2756634;86;21023;-73
2021/10/13 06:20:42;;;;;;;3.15;2.80;;;;;;;6.43;95.79;100447.45;2733379;86;21042;-73
2021/10/13 06:24:44;;;;;;;6.40;2.80;;;;;;;6.49;95.81;100454.16;2761343;86;21090;-73
2021/10/13 06:28:45;;;;;;;4.87;3.33;;;;;;;6.45;95.72;100459.27;2761910;86;21086;-73
2021/10/13 06:32:47;;;;;;;4.42;3.00;;;;;;;6.46;95.53;100460.95;2762041;86;21118;-73
2021/10/13 06:36:49;;;;;;;3.95;2.83;;;;;;;6.46;95.72;100462.73;2762087;86;21039;-73
2021/10/13 06:40:50;;;;;;;4.50;2.75;;;;;;;6.49;96.03;100475.79;2762121;86;21042;-73
2021/10/13 06:44:52;;;;;;;6.80;4.85;;;;;;;6.54;96.16;100490.39;2761990;86;20995;-73
2021/10/13 06:48:53;;;;;;;3.62;3.33;;;;;;;6.60;95.99;100479.09;2762318;86;21054;-73
2021/10/13 06:52:55;;;;;;;7.92;3.80;;;;;;;6.66;95.88;100490.10;2761960;86;21105;-73
2021/10/13 06:56:56;;;;;;;5.60;4.75;;;;;;;6.77;96.12;100487.27;2762247;86;20984;-73
2021/10/13 07:00:58;;;;;;;14.98;6.05;;;;;;;6.85;95.26;100492.45;2762123;86;20995;-73
2021/10/13 07:05:00;;;;;;;10.18;6.45;;;;;;;6.94;95.12;100493.67;2761959;86;21042;-73
2021/10/13 07:09:01;;;;;;;4.97;4.15;;;;;;;7.03;94.83;100490.05;2761593;86;21078;-73
2021/10/13 07:13:03;;;;;;;7.35;4.58;;;;;;;7.07;94.33;100498.16;2761916;86;21019;-73
2021/10/13 07:17:05;;;;;;;10.35;4.85;;;;;;;7.08;94.75;100494.11;2761736;86;21059;-73
2021/10/13 07:21:06;;;;;;;11.20;4.55;;;;;;;7.14;94.21;100511.39;2733964;86;20999;-73
2021/10/13 07:25:09;;;;;;;5.12;3.80;;;;;;;7.15;94.38;100519.22;2762081;86;21044;-73
2021/10/13 07:29:12;;;;;;;7.55;5.05;;;;;;;7.18;94.32;100524.80;2762129;86;21063;-73
2021/10/13 07:33:14;;;;;;;9.33;5.90;;;;;;;7.25;93.86;100533.20;2761847;86;21083;-73
2021/10/13 07:37:15;;;;;;;6.75;4.83;;;;;;;7.30;94.29;100533.73;2758923;86;20990;-73
2021/10/13 07:41:17;;;;;;;9.75;4.42;;;;;;;7.39;94.46;100533.16;2761719;86;21085;-73
2021/10/13 07:45:19;;;;;;;6.45;4.55;;;;;;;7.47;93.51;100533.13;2761912;86;21121;-73
2021/10/13 07:49:21;;;;;;;4.50;3.70;;;;;;;7.54;93.59;100533.09;2761969;86;21038;-73
2021/10/13 07:53:24;;;;;;;6.55;4.10;;;;;;;7.58;93.35;100530.65;2762025;86;21037;-73
2021/10/13 07:57:25;;;;;;;6.20;3.50;;;;;;;7.66;93.60;100534.09;2762016;86;21053;-73
2021/10/13 08:01:27;;;;;;;15.68;5.25;;;;;;;7.69;92.84;100545.34;2762128;86;21313;-73
2021/10/13 08:05:28;;;;;;;6.83;3.02;;;;;;;7.75;93.23;100532.17;2761968;86;21038;-73
2021/10/13 08:09:30;;;;;;;5.70;3.98;;;;;;;7.83;92.74;100538.28;2761922;86;21511;-74
2021/10/13 08:13:33;;;;;;;9.03;4.30;;;;;;;7.88;93.26;100545.94;2761941;86;21081;-74
2021/10/13 08:17:35;;;;;;;5.03;3.72;;;;;;;7.97;93.49;100544.84;2753807;85;21355;-74
2021/10/13 08:21:37;;;;;;;6.90;4.53;;;;;;;8.11;93.60;100540.40;2766559;86;20994;-74
2021/10/13 08:25:38;;;;;;;7.17;4.42;;;;;;;8.27;93.53;100554.81;2751059;86;20999;-74
2021/10/13 08:29:40;;;;;;;5.45;4.95;;;;;;;8.47;93.37;100563.20;2751075;85;21030;-74
2021/10/13 08:33:44;;;;;;;7.05;4.25;;;;;;;8.69;92.81;100559.92;2750904;86;20995;-74
2021/10/13 08:37:46;;;;;;;8.88;5.55;;;;;;;8.87;93.49;100561.78;2766421;86;21033;-76
2021/10/13 08:41:47;;;;;;;5.58;4.72;;;;;;;8.94;91.74;100556.41;2766699;85;21407;-77
2021/10/13 08:45:49;;;;;;;8.55;4.25;;;;;;;8.90;92.04;100561.56;2766643;86;21078;-76
2021/10/13 08:49:53;;;;;;;7.15;4.15;;;;;;;8.73;91.92;100563.22;2751139;86;21117;-75
2021/10/13 08:53:54;;;;;;;4.97;4.35;;;;;;;8.62;91.99;100571.92;2766928;86;21549;-75
2021/10/13 08:58:11;;;;;;;5.67;3.75;;;;;;;8.58;93.41;100568.63;2750776;86;21022;-74
2021/10/13 09:02:13;;;;;;;6.92;3.98;;;;;;;8.61;92.88;100571.06;2766641;86;21069;-74
2021/10/13 09:06:21;;;;;;;5.67;5.05;;;;;;;8.73;93.23;100572.01;2751146;84;21066;-74
2021/10/13 09:10:35;;;;;;;9.93;5.55;;;;;;;8.98;94.17;100575.13;2766873;86;21042;-74
2021/10/13 09:14:38;;;;;;;5.12;3.90;;;;;;;9.29;93.94;100575.60;2751191;86;21018;-74
2021/10/13 09:18:40;;;;;;;5.28;4.78;;;;;;;9.65;92.41;100573.52;2760801;85;21598;-74
2021/10/13 09:23:03;;;;;;;7.35;5.80;;;;;;;9.84;91.96;100564.56;2762279;86;21046;-74
2021/10/13 09:27:31;;;;;;;10.08;7.97;;;;;;;10.05;90.25;100571.89;2762195;86;21109;-74
2021/10/13 09:31:33;;;;;;;19.27;10.18;;;;;;;10.36;88.70;100575.36;2762355;86;21022;-74
2021/10/13 09:35:35;;;;;;;5.62;5.05;;;;;;;10.52;88.36;100584.36;2762304;86;21058;-74
2021/10/13 09:39:37;;;;;;;12.10;5.60;;;;;;;10.48;87.48;100578.91;2762145;86;21085;-74
2021/10/13 09:43:40;;;;;;;4.47;4.08;;;;;;;10.45;87.84;100579.16;2762271;86;21002;-74
2021/10/13 09:47:41;;;;;;;5.92;5.12;;;;;;;10.43;89.01;100588.10;2733854;86;20975;-74
2021/10/13 09:51:43;;;;;;;5.85;3.92;;;;;;;10.58;89.43;100591.85;2762351;86;21015;-74
2021/10/13 09:55:45;;;;;;;18.40;12.23;;;;;;;10.66;87.62;100597.45;2762155;86;21053;-74
2021/10/13 10:00:11;;;;;;;28.00;18.35;;;;;;;10.77;87.83;100597.94;2762011;86;21049;-74
2021/10/13 10:04:17;;;;;;;42.00;21.23;;;;;;;10.75;85.79;100603.87;2707820;87;21063;-74
2021/10/13 10:08:19;;;;;;;9.95;5.70;;;;;;;10.70;86.17;100613.53;2707911;88;21074;-74
2021/10/13 10:12:20;;;;;;;12.20;5.37;;;;;;;10.75;87.48;100605.20;2743004;86;20979;-74
2021/10/13 10:16:34;;;;;;;12.28;8.30;;;;;;;10.74;86.53;100605.30;2762102;84;21002;-74
2021/10/13 10:20:41;;;;;;;5.70;4.78;;;;;;;10.73;86.44;100610.27;2761819;86;21046;-74
2021/10/13 10:25:05;;;;;;;5.40;2.87;;;;;;;10.95;87.58;100618.77;2762230;86;21102;-74
2021/10/13 10:29:15;;;;;;;17.65;10.13;;;;;;;11.30;86.78;100623.13;2761929;84;21091;-74
2021/10/13 10:33:18;;;;;;;31.73;18.73;;;;;;;11.28;82.62;100625.89;2733161;86;21491;-74
2021/10/13 10:37:19;;;;;;;12.37;8.65;;;;;;;11.11;83.56;100631.70;2762189;86;21046;-74
2021/10/13 10:41:21;;;;;;;4.58;4.17;;;;;;;11.07;84.96;100622.28;2761728;86;21030;-74
2021/10/13 10:45:31;;;;;;;4.65;2.90;;;;;;;11.11;84.72;100623.72;2761984;86;21093;-74
2021/10/13 10:49:50;;;;;;;6.10;3.10;;;;;;;11.14;84.80;100621.67;2761423;85;21034;-74
2021/10/13 10:53:51;;;;;;;12.25;7.12;;;;;;;11.09;82.39;100625.16;2761915;86;21018;-74
2021/10/13 10:57:53;;;;;;;7.15;3.30;;;;;;;11.00;81.44;100628.09;2762151;86;21113;-74
2021/10/13 11:02:10;;;;;;;8.50;1.92;;;;;;;10.94;81.88;100627.22;2762210;86;21058;-74
2021/10/13 11:06:24;;;;;;;4.50;2.22;;;;;;;10.91;82.80;100626.63;2761850;86;21042;-74
2021/10/13 11:10:26;;;;;;;3.35;1.32;;;;;;;10.93;83.04;100634.02;2761960;86;21014;-74
2021/10/13 11:14:28;;;;;;;9.18;2.77;;;;;;;10.90;83.30;100628.44;2762238;86;20982;-74
2021/10/13 11:18:31;;;;;;;4.45;1.95;;;;;;;10.89;82.50;100633.86;2761933;85;21094;-75
2021/10/13 11:22:33;;;;;;;2.98;1.80;;;;;;;10.97;83.22;100622.98;2762329;86;20995;-74
2021/10/13 11:26:35;;;;;;;4.83;2.45;;;;;;;11.07;81.42;100620.94;2762252;86;21021;-74
2021/10/13 11:30:52;;;;;;;6.22;4.12;;;;;;;11.08;80.52;100621.30;2762183;86;21038;-74
2021/10/13 11:35:00;;;;;;;3.67;2.95;;;;;;;11.08;81.15;100631.95;2762386;86;21062;-74
2021/10/13 11:39:02;;;;;;;6.25;3.42;;;;;;;11.05;81.59;100614.89;2761824;86;21038;-74
2021/10/13 11:43:10;;;;;;;2.60;2.10;;;;;;;11.05;81.95;100633.53;2762137;86;21034;-74
2021/10/13 11:47:11;;;;;;;4.03;3.55;;;;;;;11.04;80.44;100627.34;2762188;86;21069;-74
2021/10/13 11:51:15;;;;;;;3.00;1.52;;;;;;;11.04;80.95;100634.50;2762132;86;21081;-74
2021/10/13 11:55:19;;;;;;;2.45;1.37;;;;;;;11.05;81.33;100629.53;2762170;86;21038;-74
2021/10/13 11:59:21;;;;;;;7.25;4.85;;;;;;;11.00;80.36;100632.09;2762221;86;21089;-74
2021/10/13 12:03:36;;;;;;;4.97;1.67;;;;;;;10.99;80.42;100627.70;2762173;86;21006;-74
2021/10/13 12:07:42;;;;;;;2.67;1.72;;;;;;;11.18;81.44;100615.59;2762141;86;20971;-74
2021/10/13 12:11:43;;;;;;;2.13;1.80;;;;;;;11.46;78.74;100597.90;2751400;86;21066;-74
2021/10/13 12:15:48;;;;;;;7.50;3.10;;;;;;;11.62;79.10;100617.51;2745382;86;21314;-73
2021/10/13 12:19:49;;;;;;;8.80;3.35;;;;;;;11.87;80.12;100613.66;2750028;86;21117;-74
2021/10/13 12:23:59;;;;;;;13.38;2.55;;;;;;;12.09;79.34;100623.94;2749848;86;21441;-74
2021/10/13 12:28:01;;;;;;;2.45;1.92;;;;;;;12.17;78.18;100627.27;2746366;84;21025;-74
2021/10/13 12:32:23;;;;;;;2.95;1.67;;;;;;;12.33;77.67;100632.19;2749500;86;21045;-74
2021/10/13 12:36:35;;;;;;;1.55;1.00;;;;;;;12.40;76.14;100630.22;2749972;86;22007;-74
2021/10/13 12:40:37;;;;;;;1.60;1.50;;;;;;;12.35;75.90;100629.73;2745555;86;21045;-74
2021/10/13 12:44:42;;;;;;;2.35;1.15;;;;;;;12.17;75.64;100627.27;2749960;86;21052;-74
2021/10/13 12:48:43;;;;;;;3.25;1.57;;;;;;;12.01;76.78;100625.91;2750181;86;21057;-74
2021/10/13 12:52:45;;;;;;;0.82;0.82;;;;;;;11.89;77.09;100629.53;2749832;86;21072;-74
2021/10/13 12:56:47;;;;;;;1.92;1.67;;;;;;;11.96;77.65;100634.72;2750037;86;21060;-74
2021/10/13 13:00:48;;;;;;;2.40;0.98;;;;;;;12.18;78.23;100621.83;2750260;86;21096;-74
2021/10/13 13:04:50;;;;;;;3.45;1.42;;;;;;;12.30;76.45;100627.95;2749860;86;21038;-74
2021/10/13 13:08:51;;;;;;;6.85;4.33;;;;;;;12.31;74.73;100628.31;2750357;86;21052;-74
2021/10/13 13:12:53;;;;;;;9.63;6.75;;;;;;;12.22;75.34;100629.09;2749873;86;21041;-74
2021/10/13 13:16:56;;;;;;;7.92;5.17;;;;;;;12.17;75.68;100637.94;2750031;86;21636;-68
2021/10/13 13:20:57;;;;;;;5.70;3.02;;;;;;;12.21;75.64;100630.07;2766411;86;21047;-69
2021/10/13 13:24:59;;;;;;;3.65;1.72;;;;;;;12.52;76.77;100627.47;2766171;86;21007;-68
2021/10/13 13:29:01;;;;;;;8.05;4.45;;;;;;;12.64;72.93;100619.77;2766511;86;21047;-68
2021/10/13 13:33:02;;;;;;;3.10;2.42;;;;;;;12.61;72.99;100624.50;2751029;86;21118;-67
2021/10/13 13:37:04;;;;;;;2.05;1.30;;;;;;;12.66;72.24;100627.14;2749615;85;21051;-67
2021/10/13 13:41:07;;;;;;;4.87;2.20;;;;;;;12.57;74.09;100624.77;2749237;86;31319;-68
2021/10/13 13:45:10;;;;;;;5.15;2.83;;;;;;;12.61;72.23;100625.84;2749792;86;21545;-69
2021/10/13 13:49:12;;;;;;;1.65;0.90;;;;;;;12.75;72.26;100624.18;2733489;86;21071;-70
2021/10/13 13:53:14;;;;;;;2.70;1.85;;;;;;;12.76;73.14;100618.34;2764983;85;21047;-69
2021/10/13 13:57:15;;;;;;;1.17;0.80;;;;;;;12.75;72.14;100622.84;2764813;86;21122;-70
2021/10/13 14:01:17;;;;;;;6.75;2.35;;;;;;;12.71;70.82;100626.77;2765134;86;21067;-68
2021/10/13 14:05:19;;;;;;;5.70;1.80;;;;;;;12.63;71.72;100637.23;2765323;86;21050;-70
2021/10/13 14:09:21;;;;;;;2.37;1.47;;;;;;;12.57;72.80;100638.12;2763897;84;21134;-69
2021/10/13 14:13:24;;;;;;;4.22;3.00;;;;;;;12.63;72.85;100638.09;2764452;86;21052;-69
2021/10/13 14:17:26;;;;;;;5.42;1.62;;;;;;;12.71;73.07;100635.59;2763505;85;21090;-69
2021/10/13 14:21:28;;;;;;;2.25;1.25;;;;;;;12.80;70.58;100646.48;2765415;86;21058;-69
2021/10/13 14:25:29;;;;;;;1.57;1.10;;;;;;;12.77;71.53;100647.58;2765141;86;21019;-69
2021/10/13 14:29:31;;;;;;;2.60;1.00;;;;;;;12.68;71.90;100653.22;2764931;86;21062;-69
2021/10/13 14:33:35;;;;;;;1.70;1.12;;;;;;;12.63;73.10;100658.58;2762649;86;21031;-70
2021/10/13 14:37:37;;;;;;;4.22;2.00;;;;;;;12.56;72.44;100655.58;2765714;86;21082;-69
2021/10/13 14:41:39;;;;;;;1.90;1.17;;;;;;;12.58;73.01;100671.00;2765841;86;21678;-69
2021/10/13 14:45:41;;;;;;;1.80;1.60;;;;;;;12.41;72.09;100673.26;2764974;86;21067;-69
2021/10/13 14:49:43;;;;;;;3.20;1.55;;;;;;;12.30;72.65;100669.80;2761832;86;21093;-69
2021/10/13 14:53:44;;;;;;;2.77;1.65;;;;;;;12.18;72.36;100666.30;2762884;86;21301;-69
2021/10/13 14:57:47;;;;;;;2.12;1.50;;;;;;;12.16;73.02;100676.25;2762971;86;21503;-69
2021/10/13 15:01:48;;;;;;;3.90;2.77;;;;;;;12.14;73.28;100679.89;2763813;86;21090;-69
2021/10/13 15:05:50;;;;;;;4.08;1.35;;;;;;;12.09;73.86;100679.43;2765737;86;21000;-68
2021/10/13 15:09:51;;;;;;;2.42;0.98;;;;;;;11.99;74.69;100682.48;2765845;86;21038;-69
2021/10/13 15:13:54;;;;;;;2.40;1.75;;;;;;;11.80;75.40;100693.30;2765778;86;21023;-69
2021/10/13 15:17:56;;;;;;;3.70;1.95;;;;;;;11.69;76.82;100688.84;2764582;86;21059;-70
2021/10/13 15:21:57;;;;;;;2.98;2.40;;;;;;;11.68;77.18;100696.94;2761456;86;21089;-70
2021/10/13 15:25:59;;;;;;;4.47;2.30;;;;;;;11.66;77.95;100697.55;2761318;86;21015;-70
2021/10/13 15:30:00;;;;;;;5.75;2.27;;;;;;;11.60;78.38;100704.71;2761127;86;21523;-71
2021/10/13 15:34:02;;;;;;;3.00;2.08;;;;;;;11.44;78.69;100711.25;2807691;84;21381;-71
2021/10/13 15:38:04;;;;;;;3.60;3.25;;;;;;;11.25;79.63;100714.02;2816296;84;21558;-71
2021/10/13 15:42:06;;;;;;;4.05;3.20;;;;;;;11.07;80.85;100724.77;2815825;84;21028;-71
2021/10/13 15:46:08;;;;;;;7.65;3.60;;;;;;;10.95;82.14;100726.56;2816059;84;20999;-70
2021/10/13 15:50:10;;;;;;;10.23;4.33;;;;;;;10.85;82.71;100727.75;2814387;84;21062;-71
2021/10/13 15:54:12;;;;;;;6.28;3.87;;;;;;;10.80;83.24;100733.88;2815974;84;20932;-71
2021/10/13 15:58:13;;;;;;;5.00;3.30;;;;;;;10.76;83.36;100734.61;2816168;84;21003;-71
2021/10/13 16:02:15;;;;;;;4.92;2.67;;;;;;;10.68;82.57;100733.00;2812788;84;21094;-71
2021/10/13 16:06:16;;;;;;;2.72;2.40;;;;;;;10.57;81.32;100741.32;2807091;84;21384;-70
2021/10/13 16:10:18;;;;;;;13.28;8.58;;;;;;;10.46;80.61;100745.74;2807728;85;21050;-71
2021/10/13 16:14:22;;;;;;;5.85;2.37;;;;;;;10.34;79.43;100776.72;2807586;84;21054;-73
2021/10/13 16:18:23;;;;;;;5.05;2.33;;;;;;;10.20;80.55;100794.52;2738128;85;21020;-70
2021/10/13 16:22:25;;;;;;;3.00;0.90;;;;;;;9.95;81.95;100806.05;2760808;86;21079;-72
2021/10/13 16:26:26;;;;;;;2.67;0.95;;;;;;;9.69;84.75;100803.44;2761383;86;21035;-73
2021/10/13 16:30:28;;;;;;;0.80;0.75;;;;;;;9.48;85.94;100803.11;2756155;86;21098;-71
2021/10/13 16:34:30;;;;;;;8.53;5.55;;;;;;;9.31;86.21;100787.02;2747181;86;21059;-71
2021/10/13 16:38:31;;;;;;;12.90;8.28;;;;;;;9.17;87.25;100795.44;2757140;86;21053;-71
2021/10/13 16:42:33;;;;;;;9.03;8.13;;;;;;;9.11;88.75;100786.58;2760157;86;21046;-70
2021/10/13 16:46:35;;;;;;;5.78;4.72;;;;;;;9.09;88.34;100799.11;2758706;86;21326;-70
2021/10/13 16:50:36;;;;;;;2.05;1.62;;;;;;;9.03;88.91;100808.33;2732841;86;21043;-70
2021/10/13 16:54:38;;;;;;;3.90;2.45;;;;;;;8.99;89.60;100803.69;2753307;86;21489;-70
2021/10/13 16:58:40;;;;;;;3.33;1.37;;;;;;;8.98;89.93;100809.95;2755652;86;21041;-70
2021/10/13 17:02:41;;;;;;;3.22;2.00;;;;;;;8.95;91.83;100807.50;2781644;85;21054;-70
2021/10/13 17:06:43;;;;;;;8.03;2.67;;;;;;;9.05;92.77;100807.73;2806895;85;21095;-71
2021/10/13 17:10:45;;;;;;;6.72;2.50;;;;;;;9.12;92.77;100808.19;2807229;85;21070;-72
2021/10/13 17:14:46;;;;;;;5.42;4.25;;;;;;;9.14;91.75;100806.27;2807116;84;21039;-72
2021/10/13 17:18:48;;;;;;;5.67;4.22;;;;;;;9.10;91.17;100813.58;2806974;84;21062;-72
2021/10/13 17:22:50;;;;;;;7.62;4.03;;;;;;;9.05;90.68;100820.17;2768484;85;21087;-71
2021/10/13 17:26:52;;;;;;;5.37;4.72;;;;;;;8.95;89.31;100831.88;2760583;86;21050;-72
2021/10/13 17:30:54;;;;;;;6.92;4.25;;;;;;;8.83;90.10;100841.47;2760152;85;21063;-73
2021/10/13 17:34:56;;;;;;;5.08;3.75;;;;;;;8.75;90.72;100839.34;2756093;86;21079;-77
2021/10/13 17:38:58;;;;;;;3.98;2.87;;;;;;;8.67;90.12;100846.48;2761707;86;21027;-82
2021/10/13 17:43:01;;;;;;;5.83;4.15;;;;;;;8.55;90.04;100849.91;2732563;86;21074;-80
2021/10/13 17:47:05;;;;;;;8.20;4.50;;;;;;;8.44;90.43;100848.75;2758869;86;21127;-79
2021/10/13 17:51:08;;;;;;;12.73;6.00;;;;;;;8.32;89.78;100852.20;2759410;86;21086;-81
2021/10/13 17:55:11;;;;;;;11.55;7.35;;;;;;;8.21;90.16;100856.86;2760959;86;21085;-81
2021/10/13 17:59:16;;;;;;;12.40;7.12;;;;;;;8.07;89.74;100856.41;2758092;86;21066;-84
2021/10/13 18:03:23;;;;;;;11.50;6.20;;;;;;;7.98;89.81;100859.61;2763975;84;21077;-85
2021/10/13 18:07:25;;;;;;;9.68;5.85;;;;;;;7.88;90.22;100867.77;2764662;86;21100;-87
2021/10/13 18:11:28;;;;;;;12.13;6.37;;;;;;;7.75;90.22;100869.83;2764650;86;21049;-87
2021/10/13 18:15:31;;;;;;;10.45;6.25;;;;;;;7.67;90.73;100870.28;2764285;86;21092;-88
2021/10/13 18:19:34;;;;;;;10.00;5.40;;;;;;;7.60;91.00;100876.03;2761574;85;21620;-85
2021/10/13 18:23:36;;;;;;;11.73;6.72;;;;;;;7.55;91.35;100873.66;2763636;86;21025;-87
2021/10/13 18:27:39;;;;;;;13.15;6.85;;;;;;;7.53;91.84;100872.45;2763139;86;20997;-89
2021/10/13 18:31:42;;;;;;;10.45;5.83;;;;;;;7.50;91.48;100878.38;2770576;84;21041;-88
2021/10/13 18:35:44;;;;;;;5.87;4.95;;;;;;;7.49;92.10;100882.84;2791753;84;21048;-80
2021/10/13 18:39:48;;;;;;;9.20;5.75;;;;;;;7.45;91.89;100889.23;2794053;85;21103;-85
2021/10/13 18:43:50;;;;;;;12.33;4.65;;;;;;;7.39;91.64;100891.80;2784002;83;21138;-84
2021/10/13 18:47:52;;;;;;;7.67;4.00;;;;;;;7.36;91.80;100893.27;2763125;86;21039;-84
2021/10/13 18:51:54;;;;;;;4.65;3.47;;;;;;;7.37;92.33;100895.01;2766044;86;21011;-85
2021/10/13 18:55:56;;;;;;;4.53;2.80;;;;;;;7.37;92.44;100895.01;2764880;86;21114;-85
2021/10/13 18:59:58;;;;;;;4.12;3.22;;;;;;;7.40;92.49;100899.25;2766060;86;21054;-83